Airfield :
LOGIN :

Register | Disclaimer

   EN    FR    IT 

 










Legend :    VFR   Marginal VFR   IFR   Intensive IFR   Very Intensive IFR
Visi :
Ceiling :
>= 8 km
>= 3000ft
5 to 8 km
1000 to 3000 ft
1500m to 5 km
500 to 1000 ft
800 to 1500m
200 to 500 ft
< 800m
< 200 ft
Symbols :   Thunderstorms  Fog  Heavy snow  Heavy precipitations  Wind > 20 kt
SIGMETs :     Misc.  Thunderstorms  Icing  Turbulence  Mountain Waves  Volcanic Ashes






- Airport Elevation : 33 ft
- IATA code : MHZ


EGUN - RAF Mildenhall

CURRENT METAR :
  • 232139Z 05003KT 9999 BR BKN008 11/11 A2972 RMK AO2A RAB02E39 BKN V OVC SLP067 $

EXPIRED METARs :
  • 232102Z 00000KT 9999 -RA BR OVC008 11/11 A2974 RMK AO2A RAB02 OVC V BKN CIG 007 RWY29 SLP074 $
  • 232053Z 00000KT 9999 BR BKN009 11/11 A2975 RMK AO2A RAE05RAB36E53 CIG 007 RWY29 SLP078 $
  • 232036Z 00000KT 9999 -RA BR SCT009 SCT075 11/11 A2974 RMK AO2A RAE05RAB36 SLP074 $
  • 232016Z 00000KT 9999 BKN075 11/11 A2973 RMK AO2A RAE05 SLP071 $
  • 231956Z 03004KT 9999 -RA BKN075 11/11 A2973 RMK SLPNO WND DATA ESTMD ALTSG ESTMD RVRNO $
  • 231852Z 04003KT 9999 -RA BKN080 12/12 A2977 RMK RAE02RAB25 SLPNO P0000 T01160116 $

TAF AMD TAF EGUN
Valid from the 23 at 21:00 until the 25 at 02:00 UTC


232129Z 2321/2502 10006KT 8000 BR BKN008 OVC050 QNH2969INS
BECMG 2400/2401 27006KT 3200 BR OVC007 QNH2965INS
TEMPO 2401/2404 1600 BR
BECMG 2403/2404 25006KT 3200 BR OVC001 QNH2964INS
BECMG 2408/2409 18006KT 5000 BR OVC009 QNH2964INS
BECMG 2411/2412 26012KT 8000 -RA BKN012 QNH2964INS
BECMG 2417/2418 24009KT 9999 NSW BKN005 QNH2972INS
BECMG 2420/2421 23009KT 9999 SCT005 QNH2979INS TX13/2413Z TN10/2401Z



MET'MAP, your aeronautical weather chart ! - Copyright ORBIFLY December 2007 - Disclaimer

ORBIFLY MET'MAP TEAM :

Programming & Development : Alexandra Zaïnal
Concept & Development : Baudouin d'Aumeries
Co-Development & Prog : Marc-Olivier Méhu
Technical & hardware support : Manuel Goepfert

Contact : metmap@orbifly.com




SOURCES & CREDITS :

   NOAA